sensor_id;sensor_type;location;lat;lon;timestamp;temperature;humidity
19781;DHT22;10050;55.492;13.506;2023-01-08T00:01:42;6.80;99.90
19781;DHT22;10050;55.492;13.506;2023-01-08T00:04:08;6.90;99.90
19781;DHT22;10050;55.492;13.506;2023-01-08T00:06:36;6.80;99.90
19781;DHT22;10050;55.492;13.506;2023-01-08T00:09:02;6.80;99.90
19781;DHT22;10050;55.492;13.506;2023-01-08T00:11:28;6.80;99.90
19781;DHT22;10050;55.492;13.506;2023-01-08T00:13:53;6.80;99.90
19781;DHT22;10050;55.492;13.506;2023-01-08T00:16:19;6.80;99.90
19781;DHT22;10050;55.492;13.506;2023-01-08T00:18:45;6.80;99.90
19781;DHT22;10050;55.492;13.506;2023-01-08T00:21:12;6.90;99.90
19781;DHT22;10050;55.492;13.506;2023-01-08T00:23:37;6.90;99.90
19781;DHT22;10050;55.492;13.506;2023-01-08T00:26:06;6.90;99.90
19781;DHT22;10050;55.492;13.506;2023-01-08T00:28:33;6.90;99.90
19781;DHT22;10050;55.492;13.506;2023-01-08T00:30:59;6.90;99.90
19781;DHT22;10050;55.492;13.506;2023-01-08T00:33:25;7.00;99.90
19781;DHT22;10050;55.492;13.506;2023-01-08T00:35:51;7.00;99.90
19781;DHT22;10050;55.492;13.506;2023-01-08T00:38:16;7.00;99.90
19781;DHT22;10050;55.492;13.506;2023-01-08T00:40:42;7.00;99.90
19781;DHT22;10050;55.492;13.506;2023-01-08T00:43:08;7.00;99.90
19781;DHT22;10050;55.492;13.506;2023-01-08T00:45:34;6.90;99.90
19781;DHT22;10050;55.492;13.506;2023-01-08T00:47:59;7.00;99.90
19781;DHT22;10050;55.492;13.506;2023-01-08T00:50:25;6.90;99.90
19781;DHT22;10050;55.492;13.506;2023-01-08T00:52:51;6.90;99.90
19781;DHT22;10050;55.492;13.506;2023-01-08T00:55:17;6.90;99.90
19781;DHT22;10050;55.492;13.506;2023-01-08T00:57:43;6.90;99.90
19781;DHT22;10050;55.492;13.506;2023-01-08T01:00:12;6.90;99.90
19781;DHT22;10050;55.492;13.506;2023-01-08T01:02:39;6.90;99.90
19781;DHT22;10050;55.492;13.506;2023-01-08T01:05:05;6.90;99.90
19781;DHT22;10050;55.492;13.506;2023-01-08T01:07:32;6.90;99.90
19781;DHT22;10050;55.492;13.506;2023-01-08T01:09:58;6.90;99.90
19781;DHT22;10050;55.492;13.506;2023-01-08T01:12:23;6.90;99.90
19781;DHT22;10050;55.492;13.506;2023-01-08T01:14:49;6.90;99.90
19781;DHT22;10050;55.492;13.506;2023-01-08T01:17:15;6.90;99.90
19781;DHT22;10050;55.492;13.506;2023-01-08T01:19:42;6.90;99.90
19781;DHT22;10050;55.492;13.506;2023-01-08T01:22:07;6.90;99.90
19781;DHT22;10050;55.492;13.506;2023-01-08T01:24:33;6.90;99.90
19781;DHT22;10050;55.492;13.506;2023-01-08T01:26:59;6.90;99.90
19781;DHT22;10050;55.492;13.506;2023-01-08T01:29:26;6.90;99.90
19781;DHT22;10050;55.492;13.506;2023-01-08T01:31:51;6.90;99.90
19781;DHT22;10050;55.492;13.506;2023-01-08T01:34:17;6.90;99.90
19781;DHT22;10050;55.492;13.506;2023-01-08T01:36:42;6.90;99.90
19781;DHT22;10050;55.492;13.506;2023-01-08T01:39:08;6.90;99.90
19781;DHT22;10050;55.492;13.506;2023-01-08T01:41:42;6.90;99.90
19781;DHT22;10050;55.492;13.506;2023-01-08T01:44:45;6.80;99.90
19781;DHT22;10050;55.492;13.506;2023-01-08T01:49:46;6.80;99.90
19781;DHT22;10050;55.492;13.506;2023-01-08T01:52:13;6.80;99.90
19781;DHT22;10050;55.492;13.506;2023-01-08T01:54:39;6.80;99.90
19781;DHT22;10050;55.492;13.506;2023-01-08T01:57:06;6.80;99.90
19781;DHT22;10050;55.492;13.506;2023-01-08T01:59:32;6.80;99.90
19781;DHT22;10050;55.492;13.506;2023-01-08T02:01:58;6.80;99.90
19781;DHT22;10050;55.492;13.506;2023-01-08T02:04:24;6.80;99.90
19781;DHT22;10050;55.492;13.506;2023-01-08T02:12:14;6.80;99.90
19781;DHT22;10050;55.492;13.506;2023-01-08T02:15:13;6.80;99.90
19781;DHT22;10050;55.492;13.506;2023-01-08T02:17:47;6.70;99.90
19781;DHT22;10050;55.492;13.506;2023-01-08T02:20:19;6.70;99.90
19781;DHT22;10050;55.492;13.506;2023-01-08T02:22:53;6.70;99.90
19781;DHT22;10050;55.492;13.506;2023-01-08T02:28:04;6.70;99.90
19781;DHT22;10050;55.492;13.506;2023-01-08T02:30:30;6.60;99.90
19781;DHT22;10050;55.492;13.506;2023-01-08T02:32:56;6.60;99.90
19781;DHT22;10050;55.492;13.506;2023-01-08T02:35:21;6.60;99.90
19781;DHT22;10050;55.492;13.506;2023-01-08T02:37:47;6.60;99.90
19781;DHT22;10050;55.492;13.506;2023-01-08T02:40:29;6.50;99.90
19781;DHT22;10050;55.492;13.506;2023-01-08T02:43:09;6.60;99.90
19781;DHT22;10050;55.492;13.506;2023-01-08T02:45:42;6.60;99.90
19781;DHT22;10050;55.492;13.506;2023-01-08T02:48:13;6.60;99.90
19781;DHT22;10050;55.492;13.506;2023-01-08T02:50:45;6.60;99.90
19781;DHT22;10050;55.492;13.506;2023-01-08T02:53:19;6.60;99.90
19781;DHT22;10050;55.492;13.506;2023-01-08T02:55:49;6.60;99.90
19781;DHT22;10050;55.492;13.506;2023-01-08T02:58:16;6.60;99.90
19781;DHT22;10050;55.492;13.506;2023-01-08T03:00:44;6.50;99.90
19781;DHT22;10050;55.492;13.506;2023-01-08T03:03:15;6.50;99.90
19781;DHT22;10050;55.492;13.506;2023-01-08T03:05:44;6.50;99.90
19781;DHT22;10050;55.492;13.506;2023-01-08T03:08:11;6.50;99.90
19781;DHT22;10050;55.492;13.506;2023-01-08T03:10:38;6.50;99.90
19781;DHT22;10050;55.492;13.506;2023-01-08T03:13:23;6.50;99.90
19781;DHT22;10050;55.492;13.506;2023-01-08T03:15:54;6.50;99.90
19781;DHT22;10050;55.492;13.506;2023-01-08T03:18:28;6.50;99.90
19781;DHT22;10050;55.492;13.506;2023-01-08T03:20:55;6.50;99.90
19781;DHT22;10050;55.492;13.506;2023-01-08T03:23:22;6.50;99.90
19781;DHT22;10050;55.492;13.506;2023-01-08T03:25:48;6.50;99.90
19781;DHT22;10050;55.492;13.506;2023-01-08T03:28:27;6.50;99.90
19781;DHT22;10050;55.492;13.506;2023-01-08T03:30:56;6.50;99.90
19781;DHT22;10050;55.492;13.506;2023-01-08T03:33:24;6.50;99.90
19781;DHT22;10050;55.492;13.506;2023-01-08T03:35:52;6.50;99.90
19781;DHT22;10050;55.492;13.506;2023-01-08T03:38:27;6.50;99.90
19781;DHT22;10050;55.492;13.506;2023-01-08T03:40:56;6.50;99.90
19781;DHT22;10050;55.492;13.506;2023-01-08T03:43:25;6.50;99.90
19781;DHT22;10050;55.492;13.506;2023-01-08T03:45:58;6.50;99.90
19781;DHT22;10050;55.492;13.506;2023-01-08T03:48:27;6.50;99.90
19781;DHT22;10050;55.492;13.506;2023-01-08T03:50:54;6.50;99.90
19781;DHT22;10050;55.492;13.506;2023-01-08T03:53:20;6.50;99.90
19781;DHT22;10050;55.492;13.506;2023-01-08T03:55:45;6.50;99.90
19781;DHT22;10050;55.492;13.506;2023-01-08T03:58:11;6.60;99.90
19781;DHT22;10050;55.492;13.506;2023-01-08T04:00:37;6.60;99.90
19781;DHT22;10050;55.492;13.506;2023-01-08T04:03:03;6.60;99.90
19781;DHT22;10050;55.492;13.506;2023-01-08T04:05:28;6.60;99.90
19781;DHT22;10050;55.492;13.506;2023-01-08T04:07:55;6.60;99.90
19781;DHT22;10050;55.492;13.506;2023-01-08T04:10:22;6.60;99.90
19781;DHT22;10050;55.492;13.506;2023-01-08T04:12:47;6.60;99.90
19781;DHT22;10050;55.492;13.506;2023-01-08T04:15:13;6.60;99.90
19781;DHT22;10050;55.492;13.506;2023-01-08T04:17:39;6.60;99.90
19781;DHT22;10050;55.492;13.506;2023-01-08T04:20:05;6.60;99.90
19781;DHT22;10050;55.492;13.506;2023-01-08T04:22:30;6.60;99.90
19781;DHT22;10050;55.492;13.506;2023-01-08T04:24:56;6.60;99.90
19781;DHT22;10050;55.492;13.506;2023-01-08T04:27:22;6.60;99.90
19781;DHT22;10050;55.492;13.506;2023-01-08T04:29:47;6.60;99.90
19781;DHT22;10050;55.492;13.506;2023-01-08T04:32:13;6.60;99.90
19781;DHT22;10050;55.492;13.506;2023-01-08T04:34:39;6.60;99.90
19781;DHT22;10050;55.492;13.506;2023-01-08T04:37:04;6.60;99.90
19781;DHT22;10050;55.492;13.506;2023-01-08T04:39:30;6.50;99.90
19781;DHT22;10050;55.492;13.506;2023-01-08T04:41:56;6.60;99.90
19781;DHT22;10050;55.492;13.506;2023-01-08T04:44:21;6.60;99.90
19781;DHT22;10050;55.492;13.506;2023-01-08T04:46:47;6.50;99.90
19781;DHT22;10050;55.492;13.506;2023-01-08T04:49:13;6.60;99.90
19781;DHT22;10050;55.492;13.506;2023-01-08T04:51:39;6.60;99.90
19781;DHT22;10050;55.492;13.506;2023-01-08T04:54:04;6.50;99.90
19781;DHT22;10050;55.492;13.506;2023-01-08T04:56:30;6.50;99.90
19781;DHT22;10050;55.492;13.506;2023-01-08T04:58:57;6.50;99.90
19781;DHT22;10050;55.492;13.506;2023-01-08T05:01:24;6.50;99.90
19781;DHT22;10050;55.492;13.506;2023-01-08T05:04:02;6.50;99.90
19781;DHT22;10050;55.492;13.506;2023-01-08T05:06:29;6.40;99.90
19781;DHT22;10050;55.492;13.506;2023-01-08T05:08:55;6.40;99.90
19781;DHT22;10050;55.492;13.506;2023-01-08T05:11:22;6.40;99.90
19781;DHT22;10050;55.492;13.506;2023-01-08T05:13:48;6.30;99.90
19781;DHT22;10050;55.492;13.506;2023-01-08T05:16:14;6.40;99.90
19781;DHT22;10050;55.492;13.506;2023-01-08T05:18:40;6.30;99.90
19781;DHT22;10050;55.492;13.506;2023-01-08T05:21:05;6.30;99.90
19781;DHT22;10050;55.492;13.506;2023-01-08T05:23:32;6.30;99.90
19781;DHT22;10050;55.492;13.506;2023-01-08T05:25:58;6.30;99.90
19781;DHT22;10050;55.492;13.506;2023-01-08T05:28:24;6.30;99.90
19781;DHT22;10050;55.492;13.506;2023-01-08T05:30:50;6.30;99.90
19781;DHT22;10050;55.492;13.506;2023-01-08T05:33:16;6.30;99.90
19781;DHT22;10050;55.492;13.506;2023-01-08T05:35:43;6.40;99.90
19781;DHT22;10050;55.492;13.506;2023-01-08T05:38:08;6.40;99.90
19781;DHT22;10050;55.492;13.506;2023-01-08T05:40:34;6.40;99.90
19781;DHT22;10050;55.492;13.506;2023-01-08T05:43:00;6.30;99.90
19781;DHT22;10050;55.492;13.506;2023-01-08T05:45:26;6.40;99.90
19781;DHT22;10050;55.492;13.506;2023-01-08T05:47:52;6.40;99.90
19781;DHT22;10050;55.492;13.506;2023-01-08T05:50:18;6.40;99.90
19781;DHT22;10050;55.492;13.506;2023-01-08T05:52:43;6.40;99.90
19781;DHT22;10050;55.492;13.506;2023-01-08T05:55:09;6.40;99.90
19781;DHT22;10050;55.492;13.506;2023-01-08T05:57:35;6.40;99.90
19781;DHT22;10050;55.492;13.506;2023-01-08T06:00:02;6.40;99.90
19781;DHT22;10050;55.492;13.506;2023-01-08T06:02:28;6.40;99.90
19781;DHT22;10050;55.492;13.506;2023-01-08T06:04:54;6.50;99.90
19781;DHT22;10050;55.492;13.506;2023-01-08T06:07:19;6.50;99.90
19781;DHT22;10050;55.492;13.506;2023-01-08T06:09:45;6.50;99.90
19781;DHT22;10050;55.492;13.506;2023-01-08T06:12:10;6.50;99.90
19781;DHT22;10050;55.492;13.506;2023-01-08T06:14:36;6.50;99.90
19781;DHT22;10050;55.492;13.506;2023-01-08T06:17:01;6.40;99.90
19781;DHT22;10050;55.492;13.506;2023-01-08T06:19:27;6.40;99.90
19781;DHT22;10050;55.492;13.506;2023-01-08T06:21:53;6.50;99.90
19781;DHT22;10050;55.492;13.506;2023-01-08T06:24:18;6.50;99.90
19781;DHT22;10050;55.492;13.506;2023-01-08T06:26:44;6.50;99.90
19781;DHT22;10050;55.492;13.506;2023-01-08T06:29:09;6.50;99.90
19781;DHT22;10050;55.492;13.506;2023-01-08T06:31:35;6.50;99.90
19781;DHT22;10050;55.492;13.506;2023-01-08T06:34:01;6.50;99.90
19781;DHT22;10050;55.492;13.506;2023-01-08T06:36:26;6.50;99.90
19781;DHT22;10050;55.492;13.506;2023-01-08T06:38:52;6.50;99.90
19781;DHT22;10050;55.492;13.506;2023-01-08T06:41:18;6.60;99.90
19781;DHT22;10050;55.492;13.506;2023-01-08T06:43:43;6.50;99.90
19781;DHT22;10050;55.492;13.506;2023-01-08T06:46:09;6.50;99.90
19781;DHT22;10050;55.492;13.506;2023-01-08T06:48:35;6.50;99.90
19781;DHT22;10050;55.492;13.506;2023-01-08T06:51:02;6.50;99.90
19781;DHT22;10050;55.492;13.506;2023-01-08T06:53:28;6.50;99.90
19781;DHT22;10050;55.492;13.506;2023-01-08T06:55:53;6.60;99.90
19781;DHT22;10050;55.492;13.506;2023-01-08T06:58:22;6.50;99.90
19781;DHT22;10050;55.492;13.506;2023-01-08T07:00:48;6.50;99.90
19781;DHT22;10050;55.492;13.506;2023-01-08T07:03:14;6.50;99.90
19781;DHT22;10050;55.492;13.506;2023-01-08T07:05:40;6.50;99.90
19781;DHT22;10050;55.492;13.506;2023-01-08T07:08:05;6.50;99.90
19781;DHT22;10050;55.492;13.506;2023-01-08T07:10:33;6.50;99.90
19781;DHT22;10050;55.492;13.506;2023-01-08T07:12:58;6.50;99.90
19781;DHT22;10050;55.492;13.506;2023-01-08T07:15:24;6.50;99.90
19781;DHT22;10050;55.492;13.506;2023-01-08T07:17:50;6.50;99.90
19781;DHT22;10050;55.492;13.506;2023-01-08T07:20:16;6.50;99.90
19781;DHT22;10050;55.492;13.506;2023-01-08T07:22:41;6.50;99.90
19781;DHT22;10050;55.492;13.506;2023-01-08T07:25:07;6.50;99.90
19781;DHT22;10050;55.492;13.506;2023-01-08T07:27:33;6.50;99.90
19781;DHT22;10050;55.492;13.506;2023-01-08T07:29:58;6.50;99.90
19781;DHT22;10050;55.492;13.506;2023-01-08T07:32:24;6.50;99.90
19781;DHT22;10050;55.492;13.506;2023-01-08T07:34:50;6.50;99.90
19781;DHT22;10050;55.492;13.506;2023-01-08T07:37:18;6.50;99.90
19781;DHT22;10050;55.492;13.506;2023-01-08T07:39:44;6.50;99.90
19781;DHT22;10050;55.492;13.506;2023-01-08T07:42:09;6.50;99.90
19781;DHT22;10050;55.492;13.506;2023-01-08T07:44:35;6.50;99.90
19781;DHT22;10050;55.492;13.506;2023-01-08T07:47:00;6.50;99.90
19781;DHT22;10050;55.492;13.506;2023-01-08T07:49:26;6.40;99.90
19781;DHT22;10050;55.492;13.506;2023-01-08T07:51:52;6.50;99.90
19781;DHT22;10050;55.492;13.506;2023-01-08T07:54:17;6.50;99.90
19781;DHT22;10050;55.492;13.506;2023-01-08T07:56:43;6.50;99.90
19781;DHT22;10050;55.492;13.506;2023-01-08T07:59:08;6.50;99.90
19781;DHT22;10050;55.492;13.506;2023-01-08T08:01:34;6.50;99.90
19781;DHT22;10050;55.492;13.506;2023-01-08T08:04:00;6.50;99.90
19781;DHT22;10050;55.492;13.506;2023-01-08T08:06:25;6.50;99.90
19781;DHT22;10050;55.492;13.506;2023-01-08T08:08:51;6.50;99.90
19781;DHT22;10050;55.492;13.506;2023-01-08T08:11:16;6.50;99.90
19781;DHT22;10050;55.492;13.506;2023-01-08T08:13:42;6.50;99.90
19781;DHT22;10050;55.492;13.506;2023-01-08T08:16:10;6.50;99.90
19781;DHT22;10050;55.492;13.506;2023-01-08T08:18:36;6.60;99.90
19781;DHT22;10050;55.492;13.506;2023-01-08T08:21:02;6.60;99.90
19781;DHT22;10050;55.492;13.506;2023-01-08T08:23:28;6.50;99.90
19781;DHT22;10050;55.492;13.506;2023-01-08T08:25:54;6.60;99.90
19781;DHT22;10050;55.492;13.506;2023-01-08T08:28:20;6.60;99.90
19781;DHT22;10050;55.492;13.506;2023-01-08T08:30:45;6.50;99.90
19781;DHT22;10050;55.492;13.506;2023-01-08T08:33:11;6.50;99.90
19781;DHT22;10050;55.492;13.506;2023-01-08T08:35:37;6.50;99.90
19781;DHT22;10050;55.492;13.506;2023-01-08T08:38:04;6.60;99.90
19781;DHT22;10050;55.492;13.506;2023-01-08T08:40:30;6.60;99.90
19781;DHT22;10050;55.492;13.506;2023-01-08T08:43:00;6.50;99.90
19781;DHT22;10050;55.492;13.506;2023-01-08T08:45:26;6.50;99.90
19781;DHT22;10050;55.492;13.506;2023-01-08T08:47:52;6.50;99.90
19781;DHT22;10050;55.492;13.506;2023-01-08T08:50:18;6.50;99.90
19781;DHT22;10050;55.492;13.506;2023-01-08T08:52:44;6.50;99.90
19781;DHT22;10050;55.492;13.506;2023-01-08T08:55:11;6.50;99.90
19781;DHT22;10050;55.492;13.506;2023-01-08T08:57:44;6.50;99.90
19781;DHT22;10050;55.492;13.506;2023-01-08T09:00:11;6.50;99.90
19781;DHT22;10050;55.492;13.506;2023-01-08T09:02:37;6.50;99.90
19781;DHT22;10050;55.492;13.506;2023-01-08T09:05:03;6.50;99.90
19781;DHT22;10050;55.492;13.506;2023-01-08T09:07:28;6.50;99.90
19781;DHT22;10050;55.492;13.506;2023-01-08T09:09:54;6.40;99.90
19781;DHT22;10050;55.492;13.506;2023-01-08T09:12:20;6.40;99.90
19781;DHT22;10050;55.492;13.506;2023-01-08T09:14:45;6.40;99.90
19781;DHT22;10050;55.492;13.506;2023-01-08T09:17:11;6.40;99.90
19781;DHT22;10050;55.492;13.506;2023-01-08T09:19:37;6.40;99.90
19781;DHT22;10050;55.492;13.506;2023-01-08T09:22:03;6.40;99.90
19781;DHT22;10050;55.492;13.506;2023-01-08T09:24:29;6.40;99.90
19781;DHT22;10050;55.492;13.506;2023-01-08T09:26:56;6.30;99.90
19781;DHT22;10050;55.492;13.506;2023-01-08T09:29:23;6.40;99.90
19781;DHT22;10050;55.492;13.506;2023-01-08T09:31:49;6.40;99.90
19781;DHT22;10050;55.492;13.506;2023-01-08T09:34:14;6.30;99.90
19781;DHT22;10050;55.492;13.506;2023-01-08T09:36:40;6.40;99.90
19781;DHT22;10050;55.492;13.506;2023-01-08T09:39:05;6.40;99.90
19781;DHT22;10050;55.492;13.506;2023-01-08T09:41:33;6.40;99.90
19781;DHT22;10050;55.492;13.506;2023-01-08T09:44:02;6.40;99.90
19781;DHT22;10050;55.492;13.506;2023-01-08T09:46:29;6.30;99.90
19781;DHT22;10050;55.492;13.506;2023-01-08T09:49:03;6.40;99.90
19781;DHT22;10050;55.492;13.506;2023-01-08T09:51:34;6.40;99.90
19781;DHT22;10050;55.492;13.506;2023-01-08T09:54:02;6.40;99.90
19781;DHT22;10050;55.492;13.506;2023-01-08T09:56:29;6.40;99.90
19781;DHT22;10050;55.492;13.506;2023-01-08T09:58:58;6.40;99.90
19781;DHT22;10050;55.492;13.506;2023-01-08T10:01:27;6.40;99.90
19781;DHT22;10050;55.492;13.506;2023-01-08T10:04:10;6.40;99.90
19781;DHT22;10050;55.492;13.506;2023-01-08T10:06:40;6.40;99.90
19781;DHT22;10050;55.492;13.506;2023-01-08T10:09:06;6.40;99.90
19781;DHT22;10050;55.492;13.506;2023-01-08T10:11:43;6.40;99.90
19781;DHT22;10050;55.492;13.506;2023-01-08T10:14:29;6.40;99.90
19781;DHT22;10050;55.492;13.506;2023-01-08T10:17:20;6.40;99.90
19781;DHT22;10050;55.492;13.506;2023-01-08T10:19:48;6.40;99.90
19781;DHT22;10050;55.492;13.506;2023-01-08T10:22:19;6.40;99.90
19781;DHT22;10050;55.492;13.506;2023-01-08T10:24:46;6.40;99.90
19781;DHT22;10050;55.492;13.506;2023-01-08T10:27:17;6.40;99.90
19781;DHT22;10050;55.492;13.506;2023-01-08T10:29:43;6.40;99.90
19781;DHT22;10050;55.492;13.506;2023-01-08T10:34:45;6.40;99.90
19781;DHT22;10050;55.492;13.506;2023-01-08T10:37:29;6.40;99.90
19781;DHT22;10050;55.492;13.506;2023-01-08T10:43:07;6.40;99.90
19781;DHT22;10050;55.492;13.506;2023-01-08T10:45:33;6.40;99.90
19781;DHT22;10050;55.492;13.506;2023-01-08T10:48:01;6.40;99.90
19781;DHT22;10050;55.492;13.506;2023-01-08T10:50:31;6.40;99.90
19781;DHT22;10050;55.492;13.506;2023-01-08T10:53:03;6.50;99.90
19781;DHT22;10050;55.492;13.506;2023-01-08T10:55:33;6.50;99.90
19781;DHT22;10050;55.492;13.506;2023-01-08T10:58:12;6.50;99.90
19781;DHT22;10050;55.492;13.506;2023-01-08T11:00:38;6.50;99.90
19781;DHT22;10050;55.492;13.506;2023-01-08T11:03:15;6.50;99.90
19781;DHT22;10050;55.492;13.506;2023-01-08T11:05:43;6.50;99.90
19781;DHT22;10050;55.492;13.506;2023-01-08T11:08:15;6.50;99.90
19781;DHT22;10050;55.492;13.506;2023-01-08T11:10:43;6.50;99.90
19781;DHT22;10050;55.492;13.506;2023-01-08T11:13:18;6.50;99.90
19781;DHT22;10050;55.492;13.506;2023-01-08T11:15:44;6.50;99.90
19781;DHT22;10050;55.492;13.506;2023-01-08T11:18:19;6.50;99.90
19781;DHT22;10050;55.492;13.506;2023-01-08T11:20:46;6.50;99.90
19781;DHT22;10050;55.492;13.506;2023-01-08T11:23:24;6.50;99.90
19781;DHT22;10050;55.492;13.506;2023-01-08T11:31:16;6.50;99.90
19781;DHT22;10050;55.492;13.506;2023-01-08T11:33:44;6.50;99.90
19781;DHT22;10050;55.492;13.506;2023-01-08T11:36:27;6.50;99.90
19781;DHT22;10050;55.492;13.506;2023-01-08T11:38:56;6.50;99.90
19781;DHT22;10050;55.492;13.506;2023-01-08T11:44:37;6.50;99.90
19781;DHT22;10050;55.492;13.506;2023-01-08T11:47:15;6.50;99.90
19781;DHT22;10050;55.492;13.506;2023-01-08T12:01:53;6.60;99.90
19781;DHT22;10050;55.492;13.506;2023-01-08T12:10:35;6.60;99.90
19781;DHT22;10050;55.492;13.506;2023-01-08T12:18:55;6.60;99.90
19781;DHT22;10050;55.492;13.506;2023-01-08T12:27:22;6.70;99.90
19781;DHT22;10050;55.492;13.506;2023-01-08T12:32:37;6.70;99.90
19781;DHT22;10050;55.492;13.506;2023-01-08T12:35:46;6.70;99.90
19781;DHT22;10050;55.492;13.506;2023-01-08T12:40:59;6.70;99.90
19781;DHT22;10050;55.492;13.506;2023-01-08T12:44:11;6.80;99.90
19781;DHT22;10050;55.492;13.506;2023-01-08T12:46:19;6.80;99.90
19781;DHT22;10050;55.492;13.506;2023-01-08T12:48:48;6.80;99.90
19781;DHT22;10050;55.492;13.506;2023-01-08T12:51:40;6.80;99.90
19781;DHT22;10050;55.492;13.506;2023-01-08T12:54:31;6.70;99.90
19781;DHT22;10050;55.492;13.506;2023-01-08T13:05:33;6.80;99.90
19781;DHT22;10050;55.492;13.506;2023-01-08T13:08:03;6.80;99.90
19781;DHT22;10050;55.492;13.506;2023-01-08T13:13:05;6.90;99.90
19781;DHT22;10050;55.492;13.506;2023-01-08T13:15:32;6.80;99.90
19781;DHT22;10050;55.492;13.506;2023-01-08T13:18:17;6.90;99.90
19781;DHT22;10050;55.492;13.506;2023-01-08T13:20:58;6.80;99.90
19781;DHT22;10050;55.492;13.506;2023-01-08T13:23:28;6.80;99.90
19781;DHT22;10050;55.492;13.506;2023-01-08T13:26:00;6.80;99.90
19781;DHT22;10050;55.492;13.506;2023-01-08T13:28:44;6.80;99.90
19781;DHT22;10050;55.492;13.506;2023-01-08T13:33:44;6.80;99.90
19781;DHT22;10050;55.492;13.506;2023-01-08T13:38:38;6.80;99.90
19781;DHT22;10050;55.492;13.506;2023-01-08T13:41:04;6.80;99.90
19781;DHT22;10050;55.492;13.506;2023-01-08T13:43:38;6.80;99.90
19781;DHT22;10050;55.492;13.506;2023-01-08T13:48:47;6.80;99.90
19781;DHT22;10050;55.492;13.506;2023-01-08T13:51:32;6.80;99.90
19781;DHT22;10050;55.492;13.506;2023-01-08T13:56:36;6.80;99.90
19781;DHT22;10050;55.492;13.506;2023-01-08T13:59:03;6.80;99.90
19781;DHT22;10050;55.492;13.506;2023-01-08T14:01:30;6.80;99.90
19781;DHT22;10050;55.492;13.506;2023-01-08T14:03:56;6.80;99.90
19781;DHT22;10050;55.492;13.506;2023-01-08T14:06:26;6.80;99.90
19781;DHT22;10050;55.492;13.506;2023-01-08T14:09:01;6.80;99.90
19781;DHT22;10050;55.492;13.506;2023-01-08T14:11:42;6.80;99.90
19781;DHT22;10050;55.492;13.506;2023-01-08T14:14:13;6.80;99.90
19781;DHT22;10050;55.492;13.506;2023-01-08T14:16:48;6.80;99.90
19781;DHT22;10050;55.492;13.506;2023-01-08T14:19:23;6.80;99.90
19781;DHT22;10050;55.492;13.506;2023-01-08T14:21:51;6.80;99.90
19781;DHT22;10050;55.492;13.506;2023-01-08T14:24:18;6.80;99.90
19781;DHT22;10050;55.492;13.506;2023-01-08T14:26:58;6.80;99.90
19781;DHT22;10050;55.492;13.506;2023-01-08T14:29:26;6.80;99.90
19781;DHT22;10050;55.492;13.506;2023-01-08T14:31:55;6.80;99.90
19781;DHT22;10050;55.492;13.506;2023-01-08T14:34:23;6.80;99.90
19781;DHT22;10050;55.492;13.506;2023-01-08T14:36:50;6.80;99.90
19781;DHT22;10050;55.492;13.506;2023-01-08T14:39:33;6.80;99.90
19781;DHT22;10050;55.492;13.506;2023-01-08T14:45:15;6.80;99.90
19781;DHT22;10050;55.492;13.506;2023-01-08T14:47:46;6.70;99.90
19781;DHT22;10050;55.492;13.506;2023-01-08T14:50:32;6.70;99.90
19781;DHT22;10050;55.492;13.506;2023-01-08T14:55:31;6.70;99.90
19781;DHT22;10050;55.492;13.506;2023-01-08T14:57:57;6.70;99.90
19781;DHT22;10050;55.492;13.506;2023-01-08T15:00:28;6.70;99.90
19781;DHT22;10050;55.492;13.506;2023-01-08T15:02:54;6.70;99.90
19781;DHT22;10050;55.492;13.506;2023-01-08T15:05:29;6.70;99.90
19781;DHT22;10050;55.492;13.506;2023-01-08T15:10:38;6.80;99.90
19781;DHT22;10050;55.492;13.506;2023-01-08T15:13:04;6.70;99.90
19781;DHT22;10050;55.492;13.506;2023-01-08T15:15:34;6.70;99.90
19781;DHT22;10050;55.492;13.506;2023-01-08T15:18:04;6.80;99.90
19781;DHT22;10050;55.492;13.506;2023-01-08T15:20:30;6.80;99.90
19781;DHT22;10050;55.492;13.506;2023-01-08T15:22:56;6.80;99.90
19781;DHT22;10050;55.492;13.506;2023-01-08T15:25:26;6.80;99.90
19781;DHT22;10050;55.492;13.506;2023-01-08T15:28:02;6.80;99.90
19781;DHT22;10050;55.492;13.506;2023-01-08T15:30:38;6.80;99.90
19781;DHT22;10050;55.492;13.506;2023-01-08T15:33:19;6.80;99.90
19781;DHT22;10050;55.492;13.506;2023-01-08T15:35:46;6.80;99.90
19781;DHT22;10050;55.492;13.506;2023-01-08T15:38:12;6.80;99.90
19781;DHT22;10050;55.492;13.506;2023-01-08T15:40:38;6.80;99.90
19781;DHT22;10050;55.492;13.506;2023-01-08T15:43:03;6.80;99.90
19781;DHT22;10050;55.492;13.506;2023-01-08T15:45:40;6.80;99.90
19781;DHT22;10050;55.492;13.506;2023-01-08T15:48:07;6.80;99.90
19781;DHT22;10050;55.492;13.506;2023-01-08T15:50:34;6.80;99.90
19781;DHT22;10050;55.492;13.506;2023-01-08T15:53:16;6.80;99.90
19781;DHT22;10050;55.492;13.506;2023-01-08T15:55:42;6.80;99.90
19781;DHT22;10050;55.492;13.506;2023-01-08T15:58:10;6.80;99.90
19781;DHT22;10050;55.492;13.506;2023-01-08T16:00:36;6.80;99.90
19781;DHT22;10050;55.492;13.506;2023-01-08T16:03:03;6.80;99.90
19781;DHT22;10050;55.492;13.506;2023-01-08T16:05:31;6.80;99.90
19781;DHT22;10050;55.492;13.506;2023-01-08T16:07:57;6.80;99.90
19781;DHT22;10050;55.492;13.506;2023-01-08T16:10:23;6.80;99.90
19781;DHT22;10050;55.492;13.506;2023-01-08T16:12:49;6.80;99.90
19781;DHT22;10050;55.492;13.506;2023-01-08T16:15:15;6.80;99.90
19781;DHT22;10050;55.492;13.506;2023-01-08T16:17:41;6.80;99.90
19781;DHT22;10050;55.492;13.506;2023-01-08T16:20:08;6.80;99.90
19781;DHT22;10050;55.492;13.506;2023-01-08T16:22:34;6.80;99.90
19781;DHT22;10050;55.492;13.506;2023-01-08T16:25:00;6.90;99.90
19781;DHT22;10050;55.492;13.506;2023-01-08T16:27:26;6.90;99.90
19781;DHT22;10050;55.492;13.506;2023-01-08T16:29:52;6.90;99.90
19781;DHT22;10050;55.492;13.506;2023-01-08T16:32:17;6.90;99.90
19781;DHT22;10050;55.492;13.506;2023-01-08T16:34:43;6.90;99.90
19781;DHT22;10050;55.492;13.506;2023-01-08T16:37:08;6.90;99.90
19781;DHT22;10050;55.492;13.506;2023-01-08T16:39:34;6.90;99.90
19781;DHT22;10050;55.492;13.506;2023-01-08T16:42:00;6.90;99.90
19781;DHT22;10050;55.492;13.506;2023-01-08T16:44:26;6.90;99.90
19781;DHT22;10050;55.492;13.506;2023-01-08T16:46:53;6.90;99.90
19781;DHT22;10050;55.492;13.506;2023-01-08T16:49:20;6.90;99.90
19781;DHT22;10050;55.492;13.506;2023-01-08T16:51:45;7.00;99.90
19781;DHT22;10050;55.492;13.506;2023-01-08T16:54:12;6.90;99.90
19781;DHT22;10050;55.492;13.506;2023-01-08T16:56:38;7.00;99.90
19781;DHT22;10050;55.492;13.506;2023-01-08T16:59:04;6.90;99.90
19781;DHT22;10050;55.492;13.506;2023-01-08T17:01:29;7.00;99.90
19781;DHT22;10050;55.492;13.506;2023-01-08T17:03:56;6.90;99.90
19781;DHT22;10050;55.492;13.506;2023-01-08T17:06:22;6.90;99.90
19781;DHT22;10050;55.492;13.506;2023-01-08T17:08:47;6.90;99.90